sensor_id;sensor_type;location;lat;lon;timestamp;P1;durP1;ratioP1;P2;durP2;ratioP2
26702;SDS011;14316;51.074;3.704;2023-03-14T00:02:00;5.25;;;1.70;;
26702;SDS011;14316;51.074;3.704;2023-03-14T00:04:26;5.50;;;1.52;;
26702;SDS011;14316;51.074;3.704;2023-03-14T00:06:52;4.18;;;1.58;;
26702;SDS011;14316;51.074;3.704;2023-03-14T00:09:19;6.50;;;1.40;;
26702;SDS011;14316;51.074;3.704;2023-03-14T00:11:45;9.80;;;1.63;;
26702;SDS011;14316;51.074;3.704;2023-03-14T00:14:11;6.47;;;1.75;;
26702;SDS011;14316;51.074;3.704;2023-03-14T00:16:40;5.03;;;1.90;;
26702;SDS011;14316;51.074;3.704;2023-03-14T00:19:06;3.10;;;1.15;;
26702;SDS011;14316;51.074;3.704;2023-03-14T00:21:34;9.00;;;1.95;;
26702;SDS011;14316;51.074;3.704;2023-03-14T00:23:59;6.95;;;1.63;;
26702;SDS011;14316;51.074;3.704;2023-03-14T00:26:26;8.98;;;2.20;;
26702;SDS011;14316;51.074;3.704;2023-03-14T00:28:52;4.80;;;1.35;;
26702;SDS011;14316;51.074;3.704;2023-03-14T00:31:19;9.23;;;1.77;;
26702;SDS011;14316;51.074;3.704;2023-03-14T00:33:45;7.32;;;1.73;;
26702;SDS011;14316;51.074;3.704;2023-03-14T00:36:12;6.25;;;1.70;;
26702;SDS011;14316;51.074;3.704;2023-03-14T00:38:39;6.03;;;1.70;;
26702;SDS011;14316;51.074;3.704;2023-03-14T00:41:07;10.18;;;2.38;;
26702;SDS011;14316;51.074;3.704;2023-03-14T00:43:35;6.68;;;1.30;;
26702;SDS011;14316;51.074;3.704;2023-03-14T00:46:02;8.65;;;2.28;;
26702;SDS011;14316;51.074;3.704;2023-03-14T00:48:28;6.35;;;1.67;;
26702;SDS011;14316;51.074;3.704;2023-03-14T00:50:54;10.55;;;2.10;;
26702;SDS011;14316;51.074;3.704;2023-03-14T00:53:21;9.32;;;2.20;;
26702;SDS011;14316;51.074;3.704;2023-03-14T00:55:47;10.13;;;2.70;;
26702;SDS011;14316;51.074;3.704;2023-03-14T00:58:14;10.98;;;2.53;;
26702;SDS011;14316;51.074;3.704;2023-03-14T01:00:42;7.72;;;1.88;;
26702;SDS011;14316;51.074;3.704;2023-03-14T01:03:09;7.85;;;1.95;;
26702;SDS011;14316;51.074;3.704;2023-03-14T01:05:37;9.70;;;2.25;;
26702;SDS011;14316;51.074;3.704;2023-03-14T01:08:03;11.98;;;2.55;;
26702;SDS011;14316;51.074;3.704;2023-03-14T01:10:30;9.00;;;3.00;;
26702;SDS011;14316;51.074;3.704;2023-03-14T01:12:56;8.07;;;2.30;;
26702;SDS011;14316;51.074;3.704;2023-03-14T01:15:22;6.80;;;2.00;;
26702;SDS011;14316;51.074;3.704;2023-03-14T01:17:49;13.38;;;2.95;;
26702;SDS011;14316;51.074;3.704;2023-03-14T01:20:15;9.45;;;2.92;;
26702;SDS011;14316;51.074;3.704;2023-03-14T01:22:43;9.27;;;2.80;;
26702;SDS011;14316;51.074;3.704;2023-03-14T01:25:11;12.55;;;2.92;;
26702;SDS011;14316;51.074;3.704;2023-03-14T01:27:38;9.77;;;2.05;;
26702;SDS011;14316;51.074;3.704;2023-03-14T01:30:05;12.55;;;3.30;;
26702;SDS011;14316;51.074;3.704;2023-03-14T01:32:33;9.70;;;2.03;;
26702;SDS011;14316;51.074;3.704;2023-03-14T01:34:59;15.80;;;1.90;;
26702;SDS011;14316;51.074;3.704;2023-03-14T01:37:25;10.32;;;2.00;;
26702;SDS011;14316;51.074;3.704;2023-03-14T01:39:51;10.50;;;2.28;;
26702;SDS011;14316;51.074;3.704;2023-03-14T01:42:18;11.07;;;2.35;;
26702;SDS011;14316;51.074;3.704;2023-03-14T01:47:16;12.32;;;2.83;;
26702;SDS011;14316;51.074;3.704;2023-03-14T01:49:42;9.07;;;2.08;;
26702;SDS011;14316;51.074;3.704;2023-03-14T01:52:19;11.45;;;2.50;;
26702;SDS011;14316;51.074;3.704;2023-03-14T01:54:54;8.93;;;2.40;;
26702;SDS011;14316;51.074;3.704;2023-03-14T01:57:25;9.70;;;2.65;;
26702;SDS011;14316;51.074;3.704;2023-03-14T02:00:07;11.07;;;2.38;;
26702;SDS011;14316;51.074;3.704;2023-03-14T02:02:45;9.70;;;2.00;;
26702;SDS011;14316;51.074;3.704;2023-03-14T02:05:14;8.70;;;2.15;;
26702;SDS011;14316;51.074;3.704;2023-03-14T02:07:51;12.02;;;2.22;;
26702;SDS011;14316;51.074;3.704;2023-03-14T02:10:19;10.60;;;2.08;;
26702;SDS011;14316;51.074;3.704;2023-03-14T02:12:48;9.88;;;2.00;;
26702;SDS011;14316;51.074;3.704;2023-03-14T02:15:16;7.40;;;2.13;;
26702;SDS011;14316;51.074;3.704;2023-03-14T02:17:43;6.53;;;1.50;;
26702;SDS011;14316;51.074;3.704;2023-03-14T02:23:10;6.28;;;1.58;;
26702;SDS011;14316;51.074;3.704;2023-03-14T02:28:11;8.65;;;2.35;;
26702;SDS011;14316;51.074;3.704;2023-03-14T02:30:37;9.20;;;2.20;;
26702;SDS011;14316;51.074;3.704;2023-03-14T02:33:11;5.65;;;1.30;;
26702;SDS011;14316;51.074;3.704;2023-03-14T02:35:53;5.13;;;1.20;;
26702;SDS011;14316;51.074;3.704;2023-03-14T02:41:07;2.78;;;1.02;;
26702;SDS011;14316;51.074;3.704;2023-03-14T02:43:33;2.65;;;0.75;;
26702;SDS011;14316;51.074;3.704;2023-03-14T02:45:59;3.85;;;1.60;;
26702;SDS011;14316;51.074;3.704;2023-03-14T02:48:28;7.95;;;2.03;;
26702;SDS011;14316;51.074;3.704;2023-03-14T02:51:00;4.20;;;1.08;;
26702;SDS011;14316;51.074;3.704;2023-03-14T02:53:31;4.82;;;1.08;;
26702;SDS011;14316;51.074;3.704;2023-03-14T02:55:59;5.18;;;1.35;;
26702;SDS011;14316;51.074;3.704;2023-03-14T02:58:27;4.57;;;0.85;;
26702;SDS011;14316;51.074;3.704;2023-03-14T03:00:53;3.83;;;1.13;;
26702;SDS011;14316;51.074;3.704;2023-03-14T03:03:20;4.82;;;1.15;;
26702;SDS011;14316;51.074;3.704;2023-03-14T03:05:50;5.63;;;1.50;;
26702;SDS011;14316;51.074;3.704;2023-03-14T03:08:17;4.20;;;1.33;;
26702;SDS011;14316;51.074;3.704;2023-03-14T03:10:43;4.65;;;1.42;;
26702;SDS011;14316;51.074;3.704;2023-03-14T03:13:10;3.08;;;1.33;;
26702;SDS011;14316;51.074;3.704;2023-03-14T03:15:36;7.60;;;2.20;;
26702;SDS011;14316;51.074;3.704;2023-03-14T03:18:02;5.55;;;2.00;;
26702;SDS011;14316;51.074;3.704;2023-03-14T03:20:28;7.47;;;2.65;;
26702;SDS011;14316;51.074;3.704;2023-03-14T03:22:54;6.90;;;2.88;;
26702;SDS011;14316;51.074;3.704;2023-03-14T03:25:20;11.40;;;3.10;;
26702;SDS011;14316;51.074;3.704;2023-03-14T03:27:46;8.23;;;2.65;;
26702;SDS011;14316;51.074;3.704;2023-03-14T03:30:12;7.78;;;2.90;;
26702;SDS011;14316;51.074;3.704;2023-03-14T03:32:38;6.38;;;3.10;;
26702;SDS011;14316;51.074;3.704;2023-03-14T03:35:04;7.30;;;2.90;;
26702;SDS011;14316;51.074;3.704;2023-03-14T03:37:31;9.55;;;3.40;;
26702;SDS011;14316;51.074;3.704;2023-03-14T03:39:58;5.07;;;1.73;;
26702;SDS011;14316;51.074;3.704;2023-03-14T03:42:25;8.18;;;3.08;;
26702;SDS011;14316;51.074;3.704;2023-03-14T03:44:52;7.32;;;3.50;;
26702;SDS011;14316;51.074;3.704;2023-03-14T03:47:18;7.35;;;2.50;;
26702;SDS011;14316;51.074;3.704;2023-03-14T03:49:44;7.53;;;3.72;;
26702;SDS011;14316;51.074;3.704;2023-03-14T03:52:10;10.32;;;3.42;;
26702;SDS011;14316;51.074;3.704;2023-03-14T03:54:36;6.28;;;4.15;;
26702;SDS011;14316;51.074;3.704;2023-03-14T03:57:02;7.95;;;3.70;;
26702;SDS011;14316;51.074;3.704;2023-03-14T03:59:28;10.98;;;3.58;;
26702;SDS011;14316;51.074;3.704;2023-03-14T04:01:54;7.47;;;3.58;;
26702;SDS011;14316;51.074;3.704;2023-03-14T04:04:21;8.77;;;4.28;;
26702;SDS011;14316;51.074;3.704;2023-03-14T04:06:47;12.32;;;4.55;;
26702;SDS011;14316;51.074;3.704;2023-03-14T04:09:13;9.45;;;4.40;;
26702;SDS011;14316;51.074;3.704;2023-03-14T04:11:38;11.30;;;3.97;;
26702;SDS011;14316;51.074;3.704;2023-03-14T04:14:06;8.70;;;4.65;;
26702;SDS011;14316;51.074;3.704;2023-03-14T04:16:32;6.93;;;4.22;;
26702;SDS011;14316;51.074;3.704;2023-03-14T04:18:58;9.40;;;5.30;;
26702;SDS011;14316;51.074;3.704;2023-03-14T04:21:24;7.00;;;4.18;;
26702;SDS011;14316;51.074;3.704;2023-03-14T04:23:50;8.30;;;3.17;;
26702;SDS011;14316;51.074;3.704;2023-03-14T04:26:16;10.98;;;4.50;;
26702;SDS011;14316;51.074;3.704;2023-03-14T04:28:43;14.45;;;4.97;;
26702;SDS011;14316;51.074;3.704;2023-03-14T04:31:10;11.23;;;5.07;;
26702;SDS011;14316;51.074;3.704;2023-03-14T04:33:43;10.73;;;5.15;;
26702;SDS011;14316;51.074;3.704;2023-03-14T04:36:09;7.43;;;3.67;;
26702;SDS011;14316;51.074;3.704;2023-03-14T04:38:35;6.32;;;3.95;;
26702;SDS011;14316;51.074;3.704;2023-03-14T04:41:02;8.20;;;2.58;;
26702;SDS011;14316;51.074;3.704;2023-03-14T04:43:28;13.30;;;4.25;;
26702;SDS011;14316;51.074;3.704;2023-03-14T04:45:55;12.50;;;4.60;;
26702;SDS011;14316;51.074;3.704;2023-03-14T04:48:21;6.78;;;4.30;;
26702;SDS011;14316;51.074;3.704;2023-03-14T04:50:48;9.52;;;4.40;;
26702;SDS011;14316;51.074;3.704;2023-03-14T04:53:16;7.00;;;3.08;;
26702;SDS011;14316;51.074;3.704;2023-03-14T04:55:47;10.57;;;4.95;;
26702;SDS011;14316;51.074;3.704;2023-03-14T04:58:17;7.07;;;4.22;;
26702;SDS011;14316;51.074;3.704;2023-03-14T05:00:44;5.90;;;3.28;;
26702;SDS011;14316;51.074;3.704;2023-03-14T05:03:10;7.13;;;3.38;;
26702;SDS011;14316;51.074;3.704;2023-03-14T05:05:37;8.50;;;3.25;;
26702;SDS011;14316;51.074;3.704;2023-03-14T05:08:03;6.72;;;3.15;;
26702;SDS011;14316;51.074;3.704;2023-03-14T05:10:29;3.72;;;2.58;;
26702;SDS011;14316;51.074;3.704;2023-03-14T05:12:55;10.60;;;2.55;;
26702;SDS011;14316;51.074;3.704;2023-03-14T05:15:21;4.90;;;2.30;;
26702;SDS011;14316;51.074;3.704;2023-03-14T05:17:47;3.63;;;1.80;;
26702;SDS011;14316;51.074;3.704;2023-03-14T05:20:14;7.70;;;1.95;;
26702;SDS011;14316;51.074;3.704;2023-03-14T05:22:41;7.00;;;2.45;;
26702;SDS011;14316;51.074;3.704;2023-03-14T05:25:07;2.42;;;1.90;;
26702;SDS011;14316;51.074;3.704;2023-03-14T05:27:34;4.75;;;2.15;;
26702;SDS011;14316;51.074;3.704;2023-03-14T05:30:01;3.97;;;1.83;;
26702;SDS011;14316;51.074;3.704;2023-03-14T05:32:28;1.70;;;1.60;;
26702;SDS011;14316;51.074;3.704;2023-03-14T05:34:54;4.13;;;2.03;;
26702;SDS011;14316;51.074;3.704;2023-03-14T05:37:24;6.82;;;2.95;;
26702;SDS011;14316;51.074;3.704;2023-03-14T05:39:51;6.90;;;2.83;;
26702;SDS011;14316;51.074;3.704;2023-03-14T05:42:17;7.07;;;4.53;;
26702;SDS011;14316;51.074;3.704;2023-03-14T05:44:43;12.20;;;5.40;;
26702;SDS011;14316;51.074;3.704;2023-03-14T05:47:10;10.70;;;4.93;;
26702;SDS011;14316;51.074;3.704;2023-03-14T05:49:36;8.55;;;4.07;;
26702;SDS011;14316;51.074;3.704;2023-03-14T05:52:02;7.57;;;5.55;;
26702;SDS011;14316;51.074;3.704;2023-03-14T05:54:28;10.65;;;6.32;;
26702;SDS011;14316;51.074;3.704;2023-03-14T05:56:54;14.35;;;6.43;;
26702;SDS011;14316;51.074;3.704;2023-03-14T05:59:20;11.50;;;6.90;;
26702;SDS011;14316;51.074;3.704;2023-03-14T06:01:46;12.77;;;6.72;;
26702;SDS011;14316;51.074;3.704;2023-03-14T06:04:12;10.15;;;5.22;;
26702;SDS011;14316;51.074;3.704;2023-03-14T06:06:39;8.23;;;5.05;;
26702;SDS011;14316;51.074;3.704;2023-03-14T06:09:05;9.32;;;4.32;;
26702;SDS011;14316;51.074;3.704;2023-03-14T06:11:31;7.78;;;3.45;;
26702;SDS011;14316;51.074;3.704;2023-03-14T06:13:56;9.23;;;4.13;;
26702;SDS011;14316;51.074;3.704;2023-03-14T06:16:22;7.13;;;4.05;;
26702;SDS011;14316;51.074;3.704;2023-03-14T06:18:49;8.75;;;3.70;;
26702;SDS011;14316;51.074;3.704;2023-03-14T06:21:15;9.80;;;3.90;;
26702;SDS011;14316;51.074;3.704;2023-03-14T06:23:41;7.57;;;3.55;;
26702;SDS011;14316;51.074;3.704;2023-03-14T06:26:07;10.88;;;4.55;;
26702;SDS011;14316;51.074;3.704;2023-03-14T06:28:33;6.40;;;3.92;;
26702;SDS011;14316;51.074;3.704;2023-03-14T06:31:00;7.93;;;4.15;;
26702;SDS011;14316;51.074;3.704;2023-03-14T06:33:26;10.52;;;4.35;;
26702;SDS011;14316;51.074;3.704;2023-03-14T06:35:52;11.75;;;4.53;;
26702;SDS011;14316;51.074;3.704;2023-03-14T06:38:18;15.52;;;3.90;;
26702;SDS011;14316;51.074;3.704;2023-03-14T06:40:44;12.13;;;4.55;;
26702;SDS011;14316;51.074;3.704;2023-03-14T06:43:10;8.85;;;4.20;;
26702;SDS011;14316;51.074;3.704;2023-03-14T06:45:36;10.23;;;4.10;;
26702;SDS011;14316;51.074;3.704;2023-03-14T06:48:02;11.95;;;6.38;;
26702;SDS011;14316;51.074;3.704;2023-03-14T06:50:29;8.25;;;5.05;;
26702;SDS011;14316;51.074;3.704;2023-03-14T06:52:55;11.25;;;4.78;;
26702;SDS011;14316;51.074;3.704;2023-03-14T06:55:21;8.77;;;4.88;;
26702;SDS011;14316;51.074;3.704;2023-03-14T06:57:47;12.48;;;6.00;;
26702;SDS011;14316;51.074;3.704;2023-03-14T07:00:14;8.23;;;5.13;;
26702;SDS011;14316;51.074;3.704;2023-03-14T07:02:40;14.18;;;5.70;;
26702;SDS011;14316;51.074;3.704;2023-03-14T07:05:06;15.38;;;6.88;;
26702;SDS011;14316;51.074;3.704;2023-03-14T07:07:33;9.15;;;5.30;;
26702;SDS011;14316;51.074;3.704;2023-03-14T07:09:59;13.73;;;6.32;;
26702;SDS011;14316;51.074;3.704;2023-03-14T07:12:25;11.10;;;5.53;;
26702;SDS011;14316;51.074;3.704;2023-03-14T07:14:51;11.40;;;5.03;;
26702;SDS011;14316;51.074;3.704;2023-03-14T07:17:17;8.68;;;4.45;;
26702;SDS011;14316;51.074;3.704;2023-03-14T07:19:43;10.98;;;6.22;;
26702;SDS011;14316;51.074;3.704;2023-03-14T07:22:09;15.30;;;6.45;;
26702;SDS011;14316;51.074;3.704;2023-03-14T07:24:35;12.55;;;5.68;;
26702;SDS011;14316;51.074;3.704;2023-03-14T07:27:01;12.20;;;6.25;;
26702;SDS011;14316;51.074;3.704;2023-03-14T07:29:27;13.30;;;5.00;;
26702;SDS011;14316;51.074;3.704;2023-03-14T07:31:54;10.82;;;6.28;;
26702;SDS011;14316;51.074;3.704;2023-03-14T07:34:20;10.60;;;5.97;;
26702;SDS011;14316;51.074;3.704;2023-03-14T07:36:46;13.02;;;6.20;;
26702;SDS011;14316;51.074;3.704;2023-03-14T07:39:12;14.27;;;7.10;;
26702;SDS011;14316;51.074;3.704;2023-03-14T07:41:38;9.18;;;6.10;;
26702;SDS011;14316;51.074;3.704;2023-03-14T07:44:05;13.48;;;6.72;;
26702;SDS011;14316;51.074;3.704;2023-03-14T07:46:31;11.38;;;6.00;;
26702;SDS011;14316;51.074;3.704;2023-03-14T07:48:57;12.57;;;6.13;;
26702;SDS011;14316;51.074;3.704;2023-03-14T07:51:23;13.40;;;6.72;;
26702;SDS011;14316;51.074;3.704;2023-03-14T07:53:48;15.25;;;6.72;;
26702;SDS011;14316;51.074;3.704;2023-03-14T07:56:15;13.30;;;6.60;;
26702;SDS011;14316;51.074;3.704;2023-03-14T07:58:41;13.27;;;6.53;;
26702;SDS011;14316;51.074;3.704;2023-03-14T08:01:07;14.85;;;5.97;;
26702;SDS011;14316;51.074;3.704;2023-03-14T08:03:33;11.20;;;4.72;;
26702;SDS011;14316;51.074;3.704;2023-03-14T08:05:59;8.63;;;4.90;;
26702;SDS011;14316;51.074;3.704;2023-03-14T08:08:26;11.07;;;5.45;;
26702;SDS011;14316;51.074;3.704;2023-03-14T08:10:51;10.15;;;5.65;;
26702;SDS011;14316;51.074;3.704;2023-03-14T08:13:17;9.45;;;5.25;;
26702;SDS011;14316;51.074;3.704;2023-03-14T08:15:47;10.60;;;5.47;;
26702;SDS011;14316;51.074;3.704;2023-03-14T08:18:14;9.82;;;4.22;;
26702;SDS011;14316;51.074;3.704;2023-03-14T08:20:40;14.52;;;6.43;;
26702;SDS011;14316;51.074;3.704;2023-03-14T08:23:07;9.63;;;4.93;;
26702;SDS011;14316;51.074;3.704;2023-03-14T08:25:32;15.43;;;6.55;;
26702;SDS011;14316;51.074;3.704;2023-03-14T08:27:59;12.82;;;5.88;;
26702;SDS011;14316;51.074;3.704;2023-03-14T08:30:25;10.15;;;5.43;;
26702;SDS011;14316;51.074;3.704;2023-03-14T08:32:51;11.82;;;5.95;;
26702;SDS011;14316;51.074;3.704;2023-03-14T08:35:18;11.35;;;5.00;;
26702;SDS011;14316;51.074;3.704;2023-03-14T08:37:44;14.10;;;5.32;;
26702;SDS011;14316;51.074;3.704;2023-03-14T08:40:10;11.23;;;5.85;;
26702;SDS011;14316;51.074;3.704;2023-03-14T08:42:37;7.93;;;4.82;;
26702;SDS011;14316;51.074;3.704;2023-03-14T08:45:05;9.02;;;4.30;;
26702;SDS011;14316;51.074;3.704;2023-03-14T08:47:33;6.72;;;3.85;;
26702;SDS011;14316;51.074;3.704;2023-03-14T08:49:59;7.97;;;5.00;;
26702;SDS011;14316;51.074;3.704;2023-03-14T08:52:25;9.20;;;4.50;;
26702;SDS011;14316;51.074;3.704;2023-03-14T08:54:51;11.55;;;4.40;;
26702;SDS011;14316;51.074;3.704;2023-03-14T08:57:18;4.57;;;2.88;;
26702;SDS011;14316;51.074;3.704;2023-03-14T08:59:44;6.25;;;3.78;;
26702;SDS011;14316;51.074;3.704;2023-03-14T09:02:10;9.98;;;4.15;;
26702;SDS011;14316;51.074;3.704;2023-03-14T09:04:37;10.00;;;3.70;;
26702;SDS011;14316;51.074;3.704;2023-03-14T09:07:02;11.73;;;3.95;;
26702;SDS011;14316;51.074;3.704;2023-03-14T09:09:30;9.13;;;3.70;;
26702;SDS011;14316;51.074;3.704;2023-03-14T09:11:56;17.70;;;4.90;;
26702;SDS011;14316;51.074;3.704;2023-03-14T09:14:23;13.07;;;4.57;;
26702;SDS011;14316;51.074;3.704;2023-03-14T09:16:49;9.88;;;3.55;;
26702;SDS011;14316;51.074;3.704;2023-03-14T09:19:16;11.80;;;3.53;;
26702;SDS011;14316;51.074;3.704;2023-03-14T09:21:42;12.38;;;3.70;;
26702;SDS011;14316;51.074;3.704;2023-03-14T09:24:08;11.82;;;4.20;;
26702;SDS011;14316;51.074;3.704;2023-03-14T09:26:34;8.82;;;3.67;;
26702;SDS011;14316;51.074;3.704;2023-03-14T09:29:00;8.93;;;3.33;;
26702;SDS011;14316;51.074;3.704;2023-03-14T09:31:27;13.77;;;3.97;;
26702;SDS011;14316;51.074;3.704;2023-03-14T09:33:54;8.18;;;3.28;;
26702;SDS011;14316;51.074;3.704;2023-03-14T09:36:21;6.30;;;2.45;;
26702;SDS011;14316;51.074;3.704;2023-03-14T09:38:47;10.82;;;2.72;;
26702;SDS011;14316;51.074;3.704;2023-03-14T09:44:16;12.20;;;3.75;;
26702;SDS011;14316;51.074;3.704;2023-03-14T09:46:43;11.70;;;4.45;;
26702;SDS011;14316;51.074;3.704;2023-03-14T09:49:16;17.47;;;4.80;;
26702;SDS011;14316;51.074;3.704;2023-03-14T09:51:51;10.73;;;3.88;;
26702;SDS011;14316;51.074;3.704;2023-03-14T09:54:26;8.05;;;2.28;;
26702;SDS011;14316;51.074;3.704;2023-03-14T09:56:59;11.20;;;2.25;;
26702;SDS011;14316;51.074;3.704;2023-03-14T09:59:26;8.05;;;2.15;;
26702;SDS011;14316;51.074;3.704;2023-03-14T10:01:55;6.88;;;2.17;;
26702;SDS011;14316;51.074;3.704;2023-03-14T10:04:36;5.10;;;1.83;;
26702;SDS011;14316;51.074;3.704;2023-03-14T10:07:07;6.82;;;1.90;;
26702;SDS011;14316;51.074;3.704;2023-03-14T10:09:42;9.18;;;2.28;;
26702;SDS011;14316;51.074;3.704;2023-03-14T10:12:09;7.65;;;1.80;;
26702;SDS011;14316;51.074;3.704;2023-03-14T10:14:37;5.55;;;1.67;;
26702;SDS011;14316;51.074;3.704;2023-03-14T10:17:11;6.35;;;2.15;;
26702;SDS011;14316;51.074;3.704;2023-03-14T10:19:50;8.25;;;2.38;;
26702;SDS011;14316;51.074;3.704;2023-03-14T10:22:17;6.05;;;2.50;;
26702;SDS011;14316;51.074;3.704;2023-03-14T10:24:51;10.32;;;2.75;;
26702;SDS011;14316;51.074;3.704;2023-03-14T10:27:23;11.27;;;4.22;;
26702;SDS011;14316;51.074;3.704;2023-03-14T10:30:03;7.22;;;3.22;;
26702;SDS011;14316;51.074;3.704;2023-03-14T10:32:33;6.22;;;2.20;;
26702;SDS011;14316;51.074;3.704;2023-03-14T10:38:01;5.13;;;2.03;;
26702;SDS011;14316;51.074;3.704;2023-03-14T10:40:38;6.93;;;2.38;;
26702;SDS011;14316;51.074;3.704;2023-03-14T10:43:06;13.38;;;3.22;;
26702;SDS011;14316;51.074;3.704;2023-03-14T10:45:39;6.78;;;2.97;;
26702;SDS011;14316;51.074;3.704;2023-03-14T10:50:43;6.55;;;2.78;;
26702;SDS011;14316;51.074;3.704;2023-03-14T10:53:34;13.57;;;3.75;;
26702;SDS011;14316;51.074;3.704;2023-03-14T10:56:05;4.57;;;2.58;;
26702;SDS011;14316;51.074;3.704;2023-03-14T10:58:33;6.50;;;2.97;;
26702;SDS011;14316;51.074;3.704;2023-03-14T11:01:22;7.78;;;3.25;;
26702;SDS011;14316;51.074;3.704;2023-03-14T11:09:58;9.55;;;2.80;;
26702;SDS011;14316;51.074;3.704;2023-03-14T11:12:17;11.18;;;4.25;;
26702;SDS011;14316;51.074;3.704;2023-03-14T11:14:54;10.68;;;3.85;;
26702;SDS011;14316;51.074;3.704;2023-03-14T11:26:20;7.63;;;3.40;;
26702;SDS011;14316;51.074;3.704;2023-03-14T11:29:06;7.22;;;3.00;;
26702;SDS011;14316;51.074;3.704;2023-03-14T11:31:38;5.78;;;2.40;;
26702;SDS011;14316;51.074;3.704;2023-03-14T11:37:04;11.90;;;3.75;;
26702;SDS011;14316;51.074;3.704;2023-03-14T11:39:39;21.63;;;3.08;;
26702;SDS011;14316;51.074;3.704;2023-03-14T11:44:37;19.52;;;3.55;;
26702;SDS011;14316;51.074;3.704;2023-03-14T11:52:35;18.85;;;3.40;;
26702;SDS011;14316;51.074;3.704;2023-03-14T11:55:15;21.88;;;3.45;;
26702;SDS011;14316;51.074;3.704;2023-03-14T11:58:17;16.25;;;3.08;;
26702;SDS011;14316;51.074;3.704;2023-03-14T12:00:53;26.55;;;3.88;;
26702;SDS011;14316;51.074;3.704;2023-03-14T12:06:24;18.38;;;3.58;;
26702;SDS011;14316;51.074;3.704;2023-03-14T12:08:59;25.15;;;4.43;;
26702;SDS011;14316;51.074;3.704;2023-03-14T12:11:31;17.92;;;3.15;;
26702;SDS011;14316;51.074;3.704;2023-03-14T12:14:43;20.73;;;3.83;;
26702;SDS011;14316;51.074;3.704;2023-03-14T12:19:42;19.88;;;4.70;;
26702;SDS011;14316;51.074;3.704;2023-03-14T12:25:13;25.63;;;5.35;;
26702;SDS011;14316;51.074;3.704;2023-03-14T12:30:26;38.13;;;5.70;;
26702;SDS011;14316;51.074;3.704;2023-03-14T12:35:57;25.20;;;5.55;;
26702;SDS011;14316;51.074;3.704;2023-03-14T12:41:34;31.63;;;6.20;;
26702;SDS011;14316;51.074;3.704;2023-03-14T12:46:57;23.13;;;4.82;;
26702;SDS011;14316;51.074;3.704;2023-03-14T12:49:30;20.60;;;4.10;;
26702;SDS011;14316;51.074;3.704;2023-03-14T12:52:00;25.15;;;4.13;;
26702;SDS011;14316;51.074;3.704;2023-03-14T12:54:30;24.65;;;4.05;;
26702;SDS011;14316;51.074;3.704;2023-03-14T12:59:55;17.23;;;3.35;;
26702;SDS011;14316;51.074;3.704;2023-03-14T13:02:44;17.38;;;3.00;;
26702;SDS011;14316;51.074;3.704;2023-03-14T13:13:32;18.88;;;3.13;;
26702;SDS011;14316;51.074;3.704;2023-03-14T13:15:59;11.65;;;2.60;;
26702;SDS011;14316;51.074;3.704;2023-03-14T13:18:41;17.20;;;4.15;;
26702;SDS011;14316;51.074;3.704;2023-03-14T13:21:13;16.95;;;3.55;;
26702;SDS011;14316;51.074;3.704;2023-03-14T13:23:41;12.68;;;3.00;;
26702;SDS011;14316;51.074;3.704;2023-03-14T13:31:47;13.43;;;3.28;;
26702;SDS011;14316;51.074;3.704;2023-03-14T13:34:18;19.33;;;3.97;;
26702;SDS011;14316;51.074;3.704;2023-03-14T13:36:44;19.65;;;3.97;;
26702;SDS011;14316;51.074;3.704;2023-03-14T13:39:13;22.08;;;3.97;;
26702;SDS011;14316;51.074;3.704;2023-03-14T13:41:43;16.23;;;3.90;;
26702;SDS011;14316;51.074;3.704;2023-03-14T13:44:16;16.88;;;3.42;;
26702;SDS011;14316;51.074;3.704;2023-03-14T13:46:48;15.98;;;3.10;;
26702;SDS011;14316;51.074;3.704;2023-03-14T13:49:23;10.02;;;2.10;;
26702;SDS011;14316;51.074;3.704;2023-03-14T13:51:51;10.75;;;2.38;;
26702;SDS011;14316;51.074;3.704;2023-03-14T13:54:20;10.02;;;2.78;;
26702;SDS011;14316;51.074;3.704;2023-03-14T13:56:47;9.48;;;2.53;;
26702;SDS011;14316;51.074;3.704;2023-03-14T13:59:24;11.82;;;2.22;;
26702;SDS011;14316;51.074;3.704;2023-03-14T14:01:52;5.95;;;1.65;;
26702;SDS011;14316;51.074;3.704;2023-03-14T14:04:20;7.22;;;2.20;;
26702;SDS011;14316;51.074;3.704;2023-03-14T14:06:50;7.47;;;1.80;;
26702;SDS011;14316;51.074;3.704;2023-03-14T14:09:20;8.15;;;1.60;;
26702;SDS011;14316;51.074;3.704;2023-03-14T14:11:55;5.93;;;1.60;;
26702;SDS011;14316;51.074;3.704;2023-03-14T14:14:36;5.78;;;1.80;;
26702;SDS011;14316;51.074;3.704;2023-03-14T14:17:18;2.83;;;1.50;;
26702;SDS011;14316;51.074;3.704;2023-03-14T14:22:15;4.03;;;1.10;;
26702;SDS011;14316;51.074;3.704;2023-03-14T14:24:42;3.22;;;1.30;;
26702;SDS011;14316;51.074;3.704;2023-03-14T14:29:38;4.00;;;1.20;;
26702;SDS011;14316;51.074;3.704;2023-03-14T14:34:45;3.10;;;1.05;;
26702;SDS011;14316;51.074;3.704;2023-03-14T14:40:26;4.67;;;1.27;;
26702;SDS011;14316;51.074;3.704;2023-03-14T14:42:54;6.25;;;1.25;;
26702;SDS011;14316;51.074;3.704;2023-03-14T14:45:27;8.60;;;2.60;;
26702;SDS011;14316;51.074;3.704;2023-03-14T14:50:32;4.85;;;1.40;;
26702;SDS011;14316;51.074;3.704;2023-03-14T14:53:00;7.28;;;2.22;;
26702;SDS011;14316;51.074;3.704;2023-03-14T14:55:32;6.38;;;1.50;;
26702;SDS011;14316;51.074;3.704;2023-03-14T14:58:17;5.63;;;2.30;;
26702;SDS011;14316;51.074;3.704;2023-03-14T15:03:44;7.05;;;1.48;;
26702;SDS011;14316;51.074;3.704;2023-03-14T15:06:12;3.47;;;1.20;;
26702;SDS011;14316;51.074;3.704;2023-03-14T15:08:39;4.50;;;1.58;;
26702;SDS011;14316;51.074;3.704;2023-03-14T15:11:05;8.05;;;2.08;;
26702;SDS011;14316;51.074;3.704;2023-03-14T15:13:31;5.40;;;1.80;;
26702;SDS011;14316;51.074;3.704;2023-03-14T15:15:57;11.48;;;2.58;;
26702;SDS011;14316;51.074;3.704;2023-03-14T15:18:24;9.32;;;2.45;;
26702;SDS011;14316;51.074;3.704;2023-03-14T15:20:53;13.95;;;2.63;;
26702;SDS011;14316;51.074;3.704;2023-03-14T15:23:20;8.40;;;2.42;;
26702;SDS011;14316;51.074;3.704;2023-03-14T15:25:47;10.45;;;2.45;;
26702;SDS011;14316;51.074;3.704;2023-03-14T15:28:14;15.18;;;2.40;;
26702;SDS011;14316;51.074;3.704;2023-03-14T15:30:44;9.48;;;2.67;;
26702;SDS011;14316;51.074;3.704;2023-03-14T15:33:11;9.68;;;2.60;;
26702;SDS011;14316;51.074;3.704;2023-03-14T15:35:37;10.70;;;2.67;;
26702;SDS011;14316;51.074;3.704;2023-03-14T15:38:03;10.18;;;2.20;;
26702;SDS011;14316;51.074;3.704;2023-03-14T15:40:28;14.13;;;3.20;;
26702;SDS011;14316;51.074;3.704;2023-03-14T15:42:55;11.90;;;2.22;;
26702;SDS011;14316;51.074;3.704;2023-03-14T15:45:21;11.70;;;2.67;;
26702;SDS011;14316;51.074;3.704;2023-03-14T15:47:47;15.40;;;3.53;;
26702;SDS011;14316;51.074;3.704;2023-03-14T15:50:13;15.57;;;3.53;;
26702;SDS011;14316;51.074;3.704;2023-03-14T15:52:39;12.05;;;2.72;;
26702;SDS011;14316;51.074;3.704;2023-03-14T15:55:06;11.23;;;2.70;;
26702;SDS011;14316;51.074;3.704;2023-03-14T15:57:32;11.65;;;2.97;;
26702;SDS011;14316;51.074;3.704;2023-03-14T16:00:03;9.13;;;2.80;;
26702;SDS011;14316;51.074;3.704;2023-03-14T16:02:36;9.93;;;2.55;;
26702;SDS011;14316;51.074;3.704;2023-03-14T16:05:05;9.25;;;2.38;;
26702;SDS011;14316;51.074;3.704;2023-03-14T16:07:31;7.35;;;1.80;;
26702;SDS011;14316;51.074;3.704;2023-03-14T16:09:58;7.43;;;1.92;;
26702;SDS011;14316;51.074;3.704;2023-03-14T16:12:24;13.70;;;2.63;;
26702;SDS011;14316;51.074;3.704;2023-03-14T16:14:49;11.48;;;2.58;;
26702;SDS011;14316;51.074;3.704;2023-03-14T16:17:15;13.30;;;2.40;;
26702;SDS011;14316;51.074;3.704;2023-03-14T16:19:41;16.27;;;3.80;;
26702;SDS011;14316;51.074;3.704;2023-03-14T16:22:07;12.90;;;2.80;;
26702;SDS011;14316;51.074;3.704;2023-03-14T16:24:33;12.05;;;2.45;;
26702;SDS011;14316;51.074;3.704;2023-03-14T16:26:58;11.25;;;2.38;;